Relevés horaires Semmerzake (Belgique)


Relevés horaires à Semmerzake - Dimanche 21 Févr. 2021
Heure UTC1 Température [°C] Vent [km/h] Hum. [%] Pres.4 [hPa] Visi. [Km] Nébu. [octa] Préc.5 [mm] Cond.
2m. Res. Ros. Dir.2 Vit. Moy. Raf.3
23:00 10.9 10.9 4.5 SSE 3.7 -- 5.6 65 1012.5(1.2/3h) 20 -- -- --
22:00 10.1 10.1 4.1 NNO 3.7 -- 5.6 66 1012.3(0.7/3h) 20 -- -- --
21:00 11.8 11.8 4.5 NNO 3.7 -- 7.4 61 1012.3(0.7/3h) 20 -- -- --
20:00 10.4 10.4 5.1 SE 3.7 -- 5.6 70 1011.8(-0.1/3h) 19 -- -- --
19:00 10.3 9.9 5.4 SE 5.6 -- 7.4 72 1011.7(0.3/3h) 20 -- -- --
18:00 12.7 12.7 5.5 NNO 3.7 -- 14.8 62 1012(-0.2/3h) 20 -- -- --
17:00 14.5 14.5 5.4 NNO 1.9 -- 9.3 54 1011.7(-0.2/3h) 20 -- -- --
16:00 15.9 15.9 6.0 S 5.6 -- 11.1 52 1011.2(-0.5/3h) 20 -- -- --
15:00 16.2 16.2 5.8 S 7.4 -- 14.8 50 1011.7(-0.2/3h) 20 -- -- --
14:00 16.1 16.1 6.0 S 7.4 -- 13.0 51 1011.7(-1.0/3h) 20 -- -- --
13:00 16.0 16.0 6.1 S 7.4 -- 14.8 52 1012(-0.8/3h) 20 -- -- --
12:00 15.3 15.3 6.2 S 7.4 -- 14.8 55 1012.2(-0.3/3h) 18 -- -- --
11:00 14.1 13.9 5.4 S 7.4 -- 11.1 56 1012.7(0.1/3h) 20 -- -- --
10:00 12.2 11.7 4.5 S 7.4 -- 13.0 59 1013.6(2.2/3h) 20 -- -- --
09:00 11.4 10.1 4.4 S 11.1 -- 14.8 62 1012.6(2.0/3h) 20 -- -- --
08:00 10.5 9.3 4.4 S 9.3 -- 13.0 66 1012.7(1.6/3h) 20 -- -- --
07:00 9.7 8.4 4.5 S 9.3 -- 13.0 70 1010.7(0.3/3h) 20 -- -- --
06:00 10.2 9.4 4.9 S 7.4 -- 16.7 70 1010.8(0.1/3h) 20 -- -- --
05:00 11.1 10.1 5.1 S 9.3 -- 14.8 66 1011.1(0.6/3h) 20 -- -- --
04:00 11.1 9.8 5.5 S 11.1 -- 14.8 68 1010.7(0.9/3h) 20 -- -- --
03:00 11.1 10.8 5.9 SSE 5.6 -- 16.7 70 1010.5(0.5/3h) 20 -- -- --
02:00 12.4 11.6 6.0 S 9.3 -- 16.7 65 1010.2(0.1/3h) 20 -- -- --
01:00 13.1 12.2 6.2 S 11.1 -- 16.7 63 1010(0.5/3h) 20 -- -- --
00:00 13.1 12.4 6.4 S 9.3 -- 22.2 64 1009.7(1.0/3h) 20 -- -- --

1 Coordinated Universal Time. Actuellement il est 22:00 locale et 20:00 UTC.

2 Le vent souffle depuis la direction indiquée vers la direction oposée.

3 Les rafales max. sont disponible 40 min après l'heure du relevé.

4 Pour les stations d'altitude (plus de 600m) le géopotentiel du niveau le plus proche de la pression obligatoire est indiqué.

5 Les stations disposant d'un diffuseur peuvent indiquer "trace". Cela signifie que des précipitations ont touchés le sol mais que la quantité est inférieure à 0.1 mm.

Récapitulatif de la journée
Température [°C] Vent [km/h] Ensoleillement4 [h] Precipitations totale5 [mm] Pression [Hpa]
Min1 Max.2 Moy.3 Max. Min Max.
10.0 16.4 0 22.2 0 h 0 min 0 1009.7 1013.6

1 Température minimale relevée entre 18:00 UTC la veille et 18:00 UTC le jour donné.

2 Température maximale relevée entre 06:00 UTC le jour donné et 06:00 UTC le lendemain.

3 Vent moyen de la journée basé sur les relevés horaires.

4 Ensoleillement en heures relevé entre 06:00 UTC la veille et 06:00 UTC le jour donné.

5 Précipitations totales tombées entre 06:00 UTC la jour donné et 06:00 UTC le lendemain.

Graphiques horaires